createdAt,value
2023-04-15T00:05:02.997Z,5.87
2023-04-15T00:10:06.571Z,6.08
2023-04-15T00:15:10.413Z,5.84
2023-04-15T00:20:13.598Z,5.68
2023-04-15T00:25:16.972Z,5.45
2023-04-15T00:30:20.055Z,5.41
2023-04-15T00:35:24.467Z,5.42
2023-04-15T00:40:28.123Z,5.34
2023-04-15T00:45:31.155Z,5.26
2023-04-15T00:50:34.636Z,5.15
2023-04-15T00:55:38.319Z,5.05
2023-04-15T01:00:42.827Z,5.25
2023-04-15T01:05:47.060Z,5.49
2023-04-15T01:10:50.224Z,5.62
2023-04-15T01:15:54.124Z,5.34
2023-04-15T01:20:57.587Z,5.36
2023-04-15T01:26:00.679Z,5.27
2023-04-15T01:31:11.068Z,5.17
2023-04-15T01:36:18.359Z,5.44
2023-04-15T01:41:28.956Z,5.32
2023-04-15T01:46:32.564Z,5.25
2023-04-15T01:51:36.503Z,5.07
2023-04-15T01:56:40.054Z,4.94
2023-04-15T02:01:43.086Z,4.86
2023-04-15T02:06:46.625Z,4.76
2023-04-15T02:11:53.267Z,4.67
2023-04-15T02:16:56.759Z,4.73
2023-04-15T02:22:00.533Z,4.89
2023-04-15T02:27:03.982Z,4.95
2023-04-15T02:32:07.543Z,4.96
2023-04-15T02:37:15.314Z,4.97
2023-04-15T02:42:18.443Z,4.99
2023-04-15T02:47:21.644Z,5.04
2023-04-15T02:52:25.573Z,4.89
2023-04-15T02:57:29.802Z,4.64
2023-04-15T03:02:38.320Z,4.48
2023-04-15T03:07:41.579Z,4.61
2023-04-15T03:12:44.688Z,4.54
2023-04-15T03:17:52.468Z,4.36
2023-04-15T03:22:55.834Z,4.21
2023-04-15T03:28:01.718Z,4.01
2023-04-15T03:33:05.042Z,3.85
2023-04-15T03:38:08.612Z,3.80
2023-04-15T03:43:12.517Z,4.04
2023-04-15T03:48:18.122Z,4.57
2023-04-15T03:53:22.384Z,5.09
2023-04-15T03:58:26.120Z,5.02
2023-04-15T04:03:29.837Z,5.00
2023-04-15T04:08:33.495Z,5.15
2023-04-15T04:13:37.068Z,5.14
2023-04-15T04:18:40.557Z,5.33
2023-04-15T04:23:44.190Z,5.64
2023-04-15T04:28:47.860Z,5.81
2023-04-15T04:33:51.593Z,6.16
2023-04-15T04:38:55.363Z,6.09
2023-04-15T04:43:58.689Z,6.10
2023-04-15T04:49:02.553Z,5.95
2023-04-15T04:54:06.255Z,5.96
2023-04-15T04:59:10.403Z,6.03
2023-04-15T05:04:13.985Z,6.23
2023-04-15T05:09:17.916Z,6.48
2023-04-15T05:14:23.879Z,6.62
2023-04-15T05:19:27.427Z,6.81
2023-04-15T05:24:31.172Z,7.07
2023-04-15T05:29:35.933Z,7.33
2023-04-15T05:34:39.938Z,7.56
2023-04-15T05:39:43.461Z,7.74
2023-04-15T05:44:47.361Z,7.91
2023-04-15T05:49:51.215Z,8.15
2023-04-15T05:54:54.961Z,8.47
2023-04-15T05:59:58.295Z,8.89
2023-04-15T06:05:01.673Z,9.17
2023-04-15T06:10:06.173Z,9.49
2023-04-15T06:15:10.814Z,9.75
2023-04-15T06:20:14.534Z,10.15
2023-04-15T06:25:18.448Z,10.99
2023-04-15T06:30:23.971Z,11.65
2023-04-15T06:35:28.105Z,13.25
2023-04-15T06:40:32.199Z,13.21
2023-04-15T06:45:36.073Z,12.33
2023-04-15T06:50:40.017Z,12.58
2023-04-15T06:55:43.593Z,13.02
2023-04-15T07:00:48.230Z,12.61
2023-04-15T07:05:51.840Z,12.63
2023-04-15T07:10:55.450Z,13.60
2023-04-15T07:15:59.350Z,14.74
2023-04-15T07:21:03.036Z,15.61
2023-04-15T07:26:06.938Z,15.74
2023-04-15T07:31:10.142Z,14.98
2023-04-15T07:36:14.379Z,14.76
2023-04-15T07:41:18.206Z,15.96
2023-04-15T07:46:21.912Z,17.16
2023-04-15T07:51:25.971Z,17.38
2023-04-15T07:56:29.589Z,16.89
2023-04-15T08:01:33.954Z,17.27
2023-04-15T08:06:40.207Z,17.66
2023-04-15T08:11:43.892Z,17.38
2023-04-15T08:16:47.952Z,17.43
2023-04-15T08:21:52.543Z,17.87
2023-04-15T08:26:57.001Z,16.71
2023-04-15T08:32:02.040Z,17.70
2023-04-15T08:37:06.892Z,17.61
2023-04-15T08:42:18.822Z,16.89
2023-04-15T08:47:27.564Z,17.66
2023-04-15T08:52:32.533Z,17.83
2023-04-15T08:57:37.693Z,17.63
2023-04-15T09:02:41.914Z,16.85
2023-04-15T09:07:45.935Z,17.33
2023-04-15T09:12:49.024Z,16.97
2023-04-15T09:17:52.281Z,17.42
2023-04-15T09:22:55.937Z,16.38
2023-04-15T09:28:02.913Z,16.78
2023-04-15T09:33:08.735Z,16.56
2023-04-15T09:38:13.156Z,16.98
2023-04-15T09:43:17.910Z,16.98
2023-04-15T09:48:23.255Z,16.39
2023-04-15T09:53:28.107Z,16.17
2023-04-15T09:58:35.547Z,15.86
2023-04-15T10:03:42.782Z,15.65
2023-04-15T10:08:48.632Z,14.78
2023-04-15T10:13:52.256Z,13.79
2023-04-15T10:18:57.437Z,12.67
2023-04-15T10:24:04.494Z,12.69
2023-04-15T10:29:10.312Z,13.13
2023-04-15T10:34:16.071Z,13.73
2023-04-15T10:39:34.670Z,14.72
2023-04-15T10:44:39.808Z,16.12
2023-04-15T10:49:57.571Z,16.10
2023-04-15T10:55:26.337Z,15.96
2023-04-15T11:00:32.951Z,16.28
2023-04-15T11:05:42.375Z,16.11
2023-04-15T11:10:45.968Z,15.28
2023-04-15T11:15:50.719Z,13.95
2023-04-15T11:21:00.709Z,12.43
2023-04-15T11:26:09.899Z,11.34
2023-04-15T11:31:18.709Z,10.81
2023-04-15T11:36:22.447Z,10.91
2023-04-15T11:41:26.616Z,11.20
2023-04-15T11:46:34.341Z,11.48
2023-04-15T11:51:38.178Z,11.32
2023-04-15T11:56:41.769Z,11.35
2023-04-15T12:01:47.909Z,11.71
2023-04-15T12:06:51.660Z,11.55
2023-04-15T12:11:58.821Z,11.73
2023-04-15T12:17:05.829Z,13.76
2023-04-15T12:22:15.509Z,14.29
2023-04-15T12:27:19.230Z,13.38
2023-04-15T12:32:24.008Z,12.64
2023-04-15T12:37:28.207Z,12.00
2023-04-15T12:42:32.693Z,10.95
2023-04-15T12:47:37.230Z,10.74
2023-04-15T12:52:41.321Z,10.27
2023-04-15T12:57:45.678Z,10.33
2023-04-15T13:02:49.658Z,10.39
2023-04-15T13:07:53.501Z,10.51
2023-04-15T13:12:57.526Z,10.90
2023-04-15T13:18:02.100Z,11.88
2023-04-15T13:23:05.294Z,11.64
2023-04-15T13:28:09.448Z,11.30
2023-04-15T13:33:13.044Z,11.78
2023-04-15T13:38:16.310Z,11.84
2023-04-15T13:43:19.996Z,11.34
2023-04-15T13:48:24.273Z,10.75
2023-04-15T13:53:38.187Z,11.13
2023-04-15T13:58:43.173Z,12.17
2023-04-15T14:03:47.009Z,12.49
2023-04-15T14:08:50.181Z,12.87
2023-04-15T14:13:53.806Z,14.38
2023-04-15T14:18:58.474Z,14.60
2023-04-15T14:24:01.891Z,13.61
2023-04-15T14:29:06.091Z,13.24
2023-04-15T14:34:09.816Z,13.16
2023-04-15T14:39:14.975Z,12.51
2023-04-15T14:44:18.737Z,12.54
2023-04-15T14:49:23.183Z,12.74
2023-04-15T14:54:27.278Z,13.14
2023-04-15T14:59:31.071Z,13.04
2023-04-15T15:04:36.551Z,12.96
2023-04-15T15:09:39.994Z,12.61
2023-04-15T15:14:44.231Z,12.60
2023-04-15T15:19:47.372Z,12.52
2023-04-15T15:24:51.454Z,12.91
2023-04-15T15:29:54.630Z,13.11
2023-04-15T15:34:58.835Z,12.87
2023-04-15T15:40:05.134Z,12.69
2023-04-15T15:45:09.016Z,12.65
2023-04-15T15:50:14.884Z,12.56
2023-04-15T15:55:19.202Z,12.63
2023-04-15T16:00:23.802Z,12.62
2023-04-15T16:05:27.736Z,12.62
2023-04-15T16:10:31.795Z,12.41
2023-04-15T16:15:36.110Z,12.37
2023-04-15T16:20:39.917Z,12.32
2023-04-15T16:25:44.763Z,12.22
2023-04-15T16:30:48.063Z,12.18
2023-04-15T16:35:52.754Z,11.78
2023-04-15T16:41:00.758Z,11.30
2023-04-15T16:46:04.105Z,11.21
2023-04-15T16:51:07.810Z,11.10
2023-04-15T16:56:11.291Z,11.22
2023-04-15T17:01:15.714Z,11.15
2023-04-15T17:06:18.995Z,11.14
2023-04-15T17:11:22.560Z,11.12
2023-04-15T17:16:27.186Z,10.94
2023-04-15T17:21:32.054Z,11.24
2023-04-15T17:26:35.876Z,10.93
2023-04-15T17:31:39.890Z,10.83
2023-04-15T17:36:44.478Z,10.77
2023-04-15T17:41:48.753Z,10.77
2023-04-15T17:46:52.927Z,10.55
2023-04-15T17:51:56.624Z,10.34
2023-04-15T17:57:00.641Z,10.45
2023-04-15T18:02:04.558Z,10.26
2023-04-15T18:07:08.516Z,10.28
2023-04-15T18:12:12.354Z,10.14
2023-04-15T18:17:16.794Z,10.04
2023-04-15T18:22:21.386Z,9.83
2023-04-15T18:27:25.108Z,9.73
2023-04-15T18:32:31.924Z,9.63
2023-04-15T18:37:35.842Z,9.41
2023-04-15T18:42:39.427Z,9.19
2023-04-15T18:47:43.035Z,9.19
2023-04-15T18:52:46.563Z,9.08
2023-04-15T18:57:50.430Z,8.83
2023-04-15T19:02:55.105Z,8.88
2023-04-15T19:07:59.700Z,8.80
2023-04-15T19:13:04.610Z,8.53
2023-04-15T19:18:11.132Z,8.37
2023-04-15T19:23:15.915Z,8.14
2023-04-15T19:28:19.935Z,8.29
2023-04-15T19:33:23.427Z,8.16
2023-04-15T19:38:26.795Z,8.20
2023-04-15T19:43:33.318Z,8.23
2023-04-15T19:48:37.625Z,8.50
2023-04-15T19:53:41.951Z,8.49
2023-04-15T19:58:47.316Z,8.87
2023-04-15T20:03:54.076Z,8.97
2023-04-15T20:08:59.504Z,8.87
2023-04-15T20:14:03.441Z,8.89
2023-04-15T20:19:13.423Z,9.08
2023-04-15T20:24:17.299Z,9.08
2023-04-15T20:29:21.575Z,8.88
2023-04-15T20:34:25.568Z,8.59
2023-04-15T20:39:30.716Z,8.26
2023-04-15T20:44:35.751Z,7.82
2023-04-15T20:49:40.382Z,7.71
2023-04-15T20:54:45.001Z,8.02
2023-04-15T20:59:48.901Z,7.89
2023-04-15T21:04:52.389Z,8.01
2023-04-15T21:09:56.317Z,7.65
2023-04-15T21:15:00.530Z,7.77
2023-04-15T21:20:05.094Z,7.73
2023-04-15T21:25:09.948Z,7.76
2023-04-15T21:30:14.160Z,7.91
2023-04-15T21:35:18.530Z,7.86
2023-04-15T21:40:22.218Z,7.85
2023-04-15T21:45:26.317Z,7.77
2023-04-15T21:50:30.539Z,8.10
2023-04-15T21:55:34.016Z,8.16
2023-04-15T22:00:39.713Z,8.28
2023-04-15T22:05:46.830Z,8.18
2023-04-15T22:10:50.883Z,8.27
2023-04-15T22:15:54.665Z,8.17
2023-04-15T22:20:57.857Z,8.17
2023-04-15T22:26:01.269Z,8.14
2023-04-15T22:31:04.463Z,7.93
2023-04-15T22:36:08.024Z,8.04
2023-04-15T22:41:11.660Z,7.82
2023-04-15T22:46:15.376Z,7.86
2023-04-15T22:51:23.894Z,7.83
2023-04-15T22:56:27.478Z,7.77
2023-04-15T23:01:32.495Z,7.74
2023-04-15T23:06:36.114Z,7.59
2023-04-15T23:11:39.243Z,7.51
2023-04-15T23:16:43.567Z,7.37
2023-04-15T23:21:47.856Z,7.44
2023-04-15T23:26:53.392Z,7.23
2023-04-15T23:31:57.957Z,6.86
2023-04-15T23:37:01.582Z,6.91
2023-04-15T23:42:05.759Z,6.73
2023-04-15T23:47:09.558Z,6.61
2023-04-15T23:52:12.637Z,6.52
2023-04-15T23:57:16.753Z,6.94
